Airfield :
LOGIN :

Register | Disclaimer

   EN    FR    IT 

 










Legend :    VFR   Marginal VFR   IFR   Intensive IFR   Very Intensive IFR
Visi :
Ceiling :
>= 8 km
>= 3000ft
5 to 8 km
1000 to 3000 ft
1500m to 5 km
500 to 1000 ft
800 to 1500m
200 to 500 ft
< 800m
< 200 ft
Symbols :   Thunderstorms  Fog  Heavy snow  Heavy precipitations  Wind > 20 kt
SIGMETs :     Misc.  Thunderstorms  Icing  Turbulence  Mountain Waves  Volcanic Ashes






- Airport Elevation : 1363 ft


ETIC - Grafenwohr Army Air Field

CURRENT METAR :
  • 232056Z AUTO 00000KT 9999 SCT065 17/17 A2994 RMK AO2 SLP128 60000 T01680166 50002 $

EXPIRED METARs :
  • 231956Z AUTO 00000KT 9999 CLR 19/19 A2994 RMK AO2 RAB46E46DZB46E51DZB51E51 SLP128 P0000 T01920190 $
  • 231946Z AUTO 00000KT 9999 -RA BR CLR 19/19 A2994 RMK AO2 RAB46 SLP128 $

TAF AMD TAF ETIC
Valid from the 23 at 21:00 until the 25 at 00:00 UTC


232100Z 2321/2424 VRB06KT 9999 BKN065 QNH2993INS
BECMG 2401/2402 VRB06KT 6000 BR SCT060 BKN070 QNH2988INS
BECMG 2404/2405 VRB06KT 9999 NSW SKC QNH2983INS
BECMG 2412/2413 VRB06KT 9999 FEW065 BKN100 QNH2979INS
BECMG 2417/2418 VRB06KT 8000 -SHRA SCT065 BKN100 QNH2978INS
TEMPO 2418/2422 12012G18KT 6000 -TSRA SCT065CB BKN100 TX27/2413Z TN16/2404Z LAST NO AMDS AFT 2321 NEXT 2520



MET'MAP, your aeronautical weather chart ! - Copyright ORBIFLY December 2007 - Disclaimer

ORBIFLY MET'MAP TEAM :

Programming & Development : Alexandra Zaïnal
Concept & original design : Baudouin d'Aumeries
Assistance for programming : Marc-Olivier Méhu
Technical & hardware support : Manuel Goepfert

Contact : metmap@orbifly.com




SOURCES & CREDITS :

   NOAA